createdAt,value
2019-04-29T00:02:56.923Z,97304.73
2019-04-29T00:07:58.515Z,97300.03
2019-04-29T00:13:01.141Z,97291.85
2019-04-29T00:18:04.918Z,97300.22
2019-04-29T00:23:06.780Z,97294.23
2019-04-29T00:28:09.040Z,97299.39
2019-04-29T00:33:10.883Z,97282.67
2019-04-29T00:38:20.176Z,97294.00
2019-04-29T00:43:24.117Z,97285.61
2019-04-29T00:48:25.845Z,97278.25
2019-04-29T00:53:28.131Z,97278.49
2019-04-29T00:58:29.616Z,97280.03
2019-04-29T01:03:31.294Z,97275.45
2019-04-29T01:08:33.213Z,97259.56
2019-04-29T01:13:34.735Z,97271.21
2019-04-29T01:18:36.610Z,97263.63
2019-04-29T01:23:38.089Z,97258.69
2019-04-29T01:28:50.938Z,97263.35
2019-04-29T01:33:54.470Z,97264.30
2019-04-29T01:38:57.928Z,97263.44
2019-04-29T01:44:06.962Z,97267.08
2019-04-29T01:49:08.543Z,97257.45
2019-04-29T01:54:10.315Z,97262.16
2019-04-29T01:59:11.899Z,97253.67
2019-04-29T02:04:13.371Z,97248.70
2019-04-29T02:09:16.807Z,97249.34
2019-04-29T02:14:18.375Z,97245.11
2019-04-29T02:19:19.847Z,97244.66
2019-04-29T02:24:21.332Z,97241.55
2019-04-29T02:29:22.905Z,97239.95
2019-04-29T02:34:24.384Z,97237.58
2019-04-29T02:39:28.484Z,97233.61
2019-04-29T02:44:30.118Z,97233.19
2019-04-29T02:49:31.795Z,97236.67
2019-04-29T02:54:33.385Z,97228.62
2019-04-29T02:59:34.859Z,97220.78
2019-04-29T03:04:41.214Z,97219.84
2019-04-29T03:09:45.680Z,97220.92
2019-04-29T03:14:47.630Z,97216.12
2019-04-29T03:20:08.131Z,97218.53
2019-04-29T03:25:09.811Z,97218.25
2019-04-29T03:30:13.697Z,97219.35
2019-04-29T03:35:15.273Z,97211.77
2019-04-29T03:40:16.752Z,97211.30
2019-04-29T03:45:18.312Z,97207.19
2019-04-29T03:50:21.263Z,97202.36
2019-04-29T03:55:38.151Z,97203.91
2019-04-29T04:00:26.331Z,97198.47
2019-04-29T04:05:38.840Z,97197.78
2019-04-29T04:10:40.631Z,97201.39
2019-04-29T04:15:42.527Z,97200.52
2019-04-29T04:20:44.210Z,97200.52
2019-04-29T04:25:45.849Z,97203.85
2019-04-29T04:30:47.410Z,97200.02
2019-04-29T04:35:49.302Z,97201.70
2019-04-29T04:41:01.647Z,97202.66
2019-04-29T04:46:03.286Z,97212.30
2019-04-29T04:51:04.982Z,97208.91
2019-04-29T04:56:06.659Z,97210.23
2019-04-29T05:01:08.251Z,97216.21
2019-04-29T05:06:09.834Z,97221.38
2019-04-29T05:11:11.650Z,97212.95
2019-04-29T05:16:13.267Z,97209.59
2019-04-29T05:21:14.809Z,97205.62
2019-04-29T05:26:16.585Z,97214.06
2019-04-29T05:31:18.362Z,97214.64
2019-04-29T05:36:25.979Z,97218.06
2019-04-29T05:41:30.193Z,97214.72
2019-04-29T05:46:35.678Z,97221.67
2019-04-29T05:51:39.199Z,97219.02
2019-04-29T05:56:40.775Z,97223.00
2019-04-29T06:01:42.735Z,97223.08
2019-04-29T06:06:45.768Z,97223.08
2019-04-29T06:11:48.354Z,97218.50
2019-04-29T06:16:52.703Z,97226.09
2019-04-29T06:21:53.263Z,97232.24
2019-04-29T06:26:54.830Z,97234.39
2019-04-29T06:31:56.355Z,97239.09
2019-04-29T06:36:57.838Z,97242.50
2019-04-29T06:41:59.620Z,97238.75
2019-04-29T06:47:01.106Z,97241.04
2019-04-29T06:52:03.011Z,97246.09
2019-04-29T06:57:04.627Z,97243.63
2019-04-29T07:02:09.548Z,97241.34
2019-04-29T07:07:09.584Z,97244.48
2019-04-29T07:12:13.790Z,97245.75
2019-04-29T07:17:16.534Z,97253.78
2019-04-29T07:22:20.758Z,97253.17
2019-04-29T07:27:21.512Z,97251.20
2019-04-29T07:32:22.972Z,97253.86
2019-04-29T07:37:24.422Z,97244.66
2019-04-29T07:42:31.924Z,97242.73
2019-04-29T07:47:30.960Z,97250.01
2019-04-29T07:52:33.066Z,97258.72
2019-04-29T07:57:34.642Z,97254.20
2019-04-29T08:02:36.222Z,97261.95
2019-04-29T08:07:38.104Z,97270.66
2019-04-29T08:12:42.223Z,97275.34
2019-04-29T08:17:43.702Z,97264.67
2019-04-29T08:22:45.329Z,97266.38
2019-04-29T08:27:46.896Z,97267.02
2019-04-29T08:32:48.596Z,97268.71
2019-04-29T08:37:51.263Z,97268.14
2019-04-29T08:43:11.198Z,97270.12
2019-04-29T08:48:12.986Z,97274.17
2019-04-29T08:53:15.807Z,97264.81
2019-04-29T08:58:17.533Z,97258.75
2019-04-29T09:03:23.264Z,97259.58
2019-04-29T09:08:22.421Z,97254.16
2019-04-29T09:13:23.988Z,97252.53
2019-04-29T09:18:25.474Z,97260.42
2019-04-29T09:23:31.471Z,97263.27
2019-04-29T09:28:33.290Z,97257.72
2019-04-29T09:33:34.882Z,97260.77
2019-04-29T09:38:36.952Z,97262.59
2019-04-29T09:43:42.762Z,97258.31
2019-04-29T09:48:44.348Z,97260.00
2019-04-29T09:53:45.921Z,97251.98
2019-04-29T09:58:47.439Z,97256.58
2019-04-29T10:03:58.432Z,97257.23
2019-04-29T10:09:00.009Z,97252.18
2019-04-29T10:14:01.641Z,97247.67
2019-04-29T10:19:11.386Z,97245.92
2019-04-29T10:24:14.606Z,97248.31
2019-04-29T10:29:20.158Z,97241.73
2019-04-29T10:34:26.994Z,97236.28
2019-04-29T10:39:45.309Z,97243.77
2019-04-29T10:45:06.639Z,97239.14
2019-04-29T10:50:15.436Z,97236.60
2019-04-29T10:55:17.318Z,97244.45
2019-04-29T11:00:26.546Z,97254.98
2019-04-29T11:05:30.141Z,97255.25
2019-04-29T11:10:32.528Z,97252.53
2019-04-29T11:15:36.286Z,97256.52
2019-04-29T11:20:37.978Z,97255.78
2019-04-29T11:25:51.055Z,97253.33
2019-04-29T11:30:49.700Z,97266.39
2019-04-29T11:36:11.580Z,97268.58
2019-04-29T11:41:19.858Z,97269.91
2019-04-29T11:46:17.293Z,97265.28
2019-04-29T11:51:23.610Z,97267.31
2019-04-29T11:56:25.081Z,97264.72
2019-04-29T12:01:51.809Z,97270.38
2019-04-29T12:06:56.209Z,97277.34
2019-04-29T12:11:56.391Z,97277.64
2019-04-29T12:17:00.874Z,97270.26
2019-04-29T12:22:08.594Z,97273.83
2019-04-29T12:27:10.073Z,97266.55
2019-04-29T12:32:29.989Z,97267.25
2019-04-29T12:37:37.264Z,97271.36
2019-04-29T12:42:41.549Z,97262.80
2019-04-29T12:47:45.583Z,97258.55
2019-04-29T12:52:47.156Z,97252.33
2019-04-29T12:57:51.260Z,97251.41
2019-04-29T13:03:02.889Z,97253.36
2019-04-29T13:08:06.560Z,97245.39
2019-04-29T13:13:08.775Z,97251.67
2019-04-29T13:18:23.222Z,97248.61
2019-04-29T13:23:34.805Z,97244.42
2019-04-29T13:28:30.277Z,97242.98
2019-04-29T13:33:31.633Z,97239.50
2019-04-29T13:38:33.416Z,97246.20
2019-04-29T13:43:35.661Z,97245.89
2019-04-29T13:49:06.115Z,97245.55
2019-04-29T13:54:05.809Z,97246.05
2019-04-29T13:59:10.584Z,97235.28
2019-04-29T14:04:24.385Z,97236.39
2019-04-29T14:09:21.229Z,97233.91
2019-04-29T14:14:24.660Z,97231.50
2019-04-29T14:19:41.272Z,97234.41
2019-04-29T14:24:30.657Z,97227.51
2019-04-29T14:29:32.454Z,97224.79
2019-04-29T14:34:38.739Z,97220.71
2019-04-29T14:39:40.611Z,97223.72
2019-04-29T14:44:42.253Z,97228.08
2019-04-29T14:49:54.907Z,97230.27
2019-04-29T14:54:55.198Z,97238.03
2019-04-29T14:59:57.064Z,97232.31
2019-04-29T15:04:58.939Z,97232.87
2019-04-29T15:10:00.504Z,97231.13
2019-04-29T15:15:12.374Z,97231.13
2019-04-29T15:20:32.091Z,97232.76
2019-04-29T15:25:33.984Z,97226.95
2019-04-29T15:30:36.863Z,97231.19
2019-04-29T15:35:39.316Z,97225.10
2019-04-29T15:40:43.022Z,97221.69
2019-04-29T15:45:44.548Z,97218.67
2019-04-29T15:50:46.026Z,97220.66
2019-04-29T15:55:47.496Z,97215.77
2019-04-29T16:00:49.154Z,97211.58
2019-04-29T16:06:19.705Z,97212.43
2019-04-29T16:11:23.739Z,97210.45
2019-04-29T16:16:25.251Z,97210.95
2019-04-29T16:21:32.301Z,97206.62
2019-04-29T16:26:32.017Z,97207.19
2019-04-29T16:31:33.709Z,97200.19
2019-04-29T16:36:35.180Z,97195.70
2019-04-29T16:41:36.815Z,97203.28
2019-04-29T16:46:39.205Z,97200.72
2019-04-29T16:51:41.089Z,97205.36
2019-04-29T16:56:42.659Z,97209.34
2019-04-29T17:01:45.694Z,97211.17
2019-04-29T17:07:11.321Z,97210.16
2019-04-29T17:11:56.037Z,97214.50
2019-04-29T17:16:55.122Z,97209.84
2019-04-29T17:22:23.759Z,97208.52
2019-04-29T17:27:01.995Z,97211.02
2019-04-29T17:32:07.102Z,97213.47
2019-04-29T17:37:09.835Z,97212.67
2019-04-29T17:42:11.994Z,97215.23
2019-04-29T17:47:33.007Z,97213.52
2019-04-29T17:52:35.267Z,97223.12
2019-04-29T17:57:55.435Z,97227.78
2019-04-29T18:03:05.448Z,97226.95
2019-04-29T18:08:16.249Z,97225.00
2019-04-29T18:13:23.691Z,97226.45
2019-04-29T18:18:26.338Z,97237.90
2019-04-29T18:23:27.422Z,97238.91
2019-04-29T18:28:29.401Z,97239.22
2019-04-29T18:33:31.035Z,97242.38
2019-04-29T18:38:32.734Z,97242.03
2019-04-29T18:43:35.348Z,97240.08
2019-04-29T18:48:37.081Z,97234.06
2019-04-29T18:53:38.560Z,97229.55
2019-04-29T18:58:42.171Z,97231.50
2019-04-29T19:03:48.396Z,97224.03
2019-04-29T19:08:50.248Z,97216.16
2019-04-29T19:13:52.226Z,97213.30
2019-04-29T19:19:00.133Z,97206.61
2019-04-29T19:24:00.639Z,97208.91
2019-04-29T19:29:05.366Z,97218.87
2019-04-29T19:34:05.506Z,97229.55
2019-04-29T19:39:09.125Z,97230.62
2019-04-29T19:44:11.983Z,97233.95
2019-04-29T19:49:15.690Z,97235.69
2019-04-29T19:54:23.770Z,97234.21
2019-04-29T19:59:21.396Z,97238.96
2019-04-29T20:04:28.488Z,97233.33
2019-04-29T20:09:31.322Z,97236.45
2019-04-29T20:14:36.409Z,97234.66
2019-04-29T20:19:58.719Z,97226.34
2019-04-29T20:24:58.607Z,97228.78
2019-04-29T20:30:00.357Z,97228.94
2019-04-29T20:35:08.618Z,97226.63
2019-04-29T20:40:12.586Z,97228.64
2019-04-29T20:45:15.475Z,97224.95
2019-04-29T20:50:17.671Z,97219.64
2019-04-29T20:55:19.667Z,97216.78
2019-04-29T21:00:25.054Z,97217.91
2019-04-29T21:05:27.710Z,97208.05
2019-04-29T21:10:30.279Z,97206.55
2019-04-29T21:15:45.084Z,97206.45
2019-04-29T21:20:47.466Z,97206.96
2019-04-29T21:25:49.051Z,97198.84
2019-04-29T21:30:50.529Z,97196.20
2019-04-29T21:35:57.980Z,97197.81
2019-04-29T21:41:15.500Z,97200.12
2019-04-29T21:46:24.485Z,97193.28
2019-04-29T21:51:20.826Z,97194.75
2019-04-29T21:56:22.295Z,97198.52
2019-04-29T22:01:25.171Z,97195.05
2019-04-29T22:06:29.109Z,97197.34
2019-04-29T22:11:30.862Z,97189.32
2019-04-29T22:16:32.854Z,97189.94
2019-04-29T22:21:36.038Z,97181.30
2019-04-29T22:26:37.671Z,97177.32
2019-04-29T22:31:39.555Z,97180.66
2019-04-29T22:36:41.039Z,97178.14
2019-04-29T22:41:48.720Z,97170.03
2019-04-29T22:46:49.410Z,97162.38
2019-04-29T22:51:55.835Z,97161.05
2019-04-29T22:56:56.597Z,97154.91
2019-04-29T23:01:59.043Z,97149.05
2019-04-29T23:07:00.668Z,97148.07
2019-04-29T23:12:03.055Z,97144.39
2019-04-29T23:17:06.112Z,97140.41
2019-04-29T23:22:15.453Z,97135.36
2019-04-29T23:27:19.631Z,97132.03
2019-04-29T23:32:22.151Z,97125.25
2019-04-29T23:37:27.129Z,97120.71
2019-04-29T23:42:27.156Z,97121.69
2019-04-29T23:47:28.678Z,97111.78
2019-04-29T23:52:30.191Z,97107.59
2019-04-29T23:57:42.585Z,97098.96
